sensor_id;sensor_type;location;lat;lon;timestamp;temperature;humidity
41762;DHT22;27441;50.860;0.258;2022-07-06T00:02:13;14.20;99.90
41762;DHT22;27441;50.860;0.258;2022-07-06T00:04:39;14.20;99.90
41762;DHT22;27441;50.860;0.258;2022-07-06T00:07:05;14.20;99.90
41762;DHT22;27441;50.860;0.258;2022-07-06T00:09:31;14.30;99.90
41762;DHT22;27441;50.860;0.258;2022-07-06T00:11:56;14.20;99.90
41762;DHT22;27441;50.860;0.258;2022-07-06T00:14:22;14.20;99.90
41762;DHT22;27441;50.860;0.258;2022-07-06T00:16:48;14.30;99.90
41762;DHT22;27441;50.860;0.258;2022-07-06T00:19:13;14.20;99.90
41762;DHT22;27441;50.860;0.258;2022-07-06T00:21:39;14.10;99.90
41762;DHT22;27441;50.860;0.258;2022-07-06T00:24:05;14.10;99.90
41762;DHT22;27441;50.860;0.258;2022-07-06T00:26:30;14.10;99.90
41762;DHT22;27441;50.860;0.258;2022-07-06T00:28:56;14.00;99.90
41762;DHT22;27441;50.860;0.258;2022-07-06T00:31:22;14.00;99.90
41762;DHT22;27441;50.860;0.258;2022-07-06T00:33:47;14.00;99.90
41762;DHT22;27441;50.860;0.258;2022-07-06T00:36:13;13.90;99.90
41762;DHT22;27441;50.860;0.258;2022-07-06T00:38:39;13.90;99.90
41762;DHT22;27441;50.860;0.258;2022-07-06T00:41:04;13.90;99.90
41762;DHT22;27441;50.860;0.258;2022-07-06T00:44:15;13.80;99.90
41762;DHT22;27441;50.860;0.258;2022-07-06T00:46:16;13.80;99.90
41762;DHT22;27441;50.860;0.258;2022-07-06T00:48:41;13.80;99.90
41762;DHT22;27441;50.860;0.258;2022-07-06T00:51:07;13.70;99.90
41762;DHT22;27441;50.860;0.258;2022-07-06T00:53:33;13.80;99.90
41762;DHT22;27441;50.860;0.258;2022-07-06T00:55:58;13.70;99.90
41762;DHT22;27441;50.860;0.258;2022-07-06T00:58:24;13.70;99.90
41762;DHT22;27441;50.860;0.258;2022-07-06T01:00:50;13.60;99.90
41762;DHT22;27441;50.860;0.258;2022-07-06T01:03:15;13.60;99.90
41762;DHT22;27441;50.860;0.258;2022-07-06T01:05:41;13.60;99.90
41762;DHT22;27441;50.860;0.258;2022-07-06T01:08:07;13.60;99.90
41762;DHT22;27441;50.860;0.258;2022-07-06T01:10:32;13.60;99.90
41762;DHT22;27441;50.860;0.258;2022-07-06T01:12:58;13.50;99.90
41762;DHT22;27441;50.860;0.258;2022-07-06T01:15:24;13.50;99.90
41762;DHT22;27441;50.860;0.258;2022-07-06T01:17:50;13.50;99.90
41762;DHT22;27441;50.860;0.258;2022-07-06T01:20:16;13.50;99.90
41762;DHT22;27441;50.860;0.258;2022-07-06T01:22:43;13.40;99.90
41762;DHT22;27441;50.860;0.258;2022-07-06T01:25:09;13.40;99.90
41762;DHT22;27441;50.860;0.258;2022-07-06T01:27:37;13.40;99.90
41762;DHT22;27441;50.860;0.258;2022-07-06T01:30:11;13.30;99.90
41762;DHT22;27441;50.860;0.258;2022-07-06T01:32:37;13.30;99.90
41762;DHT22;27441;50.860;0.258;2022-07-06T01:35:04;13.30;99.90
41762;DHT22;27441;50.860;0.258;2022-07-06T01:37:30;13.20;99.90
41762;DHT22;27441;50.860;0.258;2022-07-06T01:39:59;13.20;99.90
41762;DHT22;27441;50.860;0.258;2022-07-06T01:42:25;13.20;99.90
41762;DHT22;27441;50.860;0.258;2022-07-06T01:44:51;13.20;99.90
41762;DHT22;27441;50.860;0.258;2022-07-06T01:47:16;13.10;99.90
41762;DHT22;27441;50.860;0.258;2022-07-06T01:49:42;13.10;99.90
41762;DHT22;27441;50.860;0.258;2022-07-06T01:52:08;13.10;99.90
41762;DHT22;27441;50.860;0.258;2022-07-06T01:54:33;13.00;99.90
41762;DHT22;27441;50.860;0.258;2022-07-06T01:56:59;13.00;99.90
41762;DHT22;27441;50.860;0.258;2022-07-06T01:59:24;13.00;99.90
41762;DHT22;27441;50.860;0.258;2022-07-06T02:01:50;13.00;99.90
41762;DHT22;27441;50.860;0.258;2022-07-06T02:04:16;12.90;99.90
41762;DHT22;27441;50.860;0.258;2022-07-06T02:06:41;12.90;99.90
41762;DHT22;27441;50.860;0.258;2022-07-06T02:09:07;12.90;99.90
41762;DHT22;27441;50.860;0.258;2022-07-06T02:11:32;12.80;99.90
41762;DHT22;27441;50.860;0.258;2022-07-06T02:13:58;12.70;99.90
41762;DHT22;27441;50.860;0.258;2022-07-06T02:16:24;12.60;99.90
41762;DHT22;27441;50.860;0.258;2022-07-06T02:18:49;12.60;99.90
41762;DHT22;27441;50.860;0.258;2022-07-06T02:21:15;12.60;99.90
41762;DHT22;27441;50.860;0.258;2022-07-06T02:23:41;12.60;99.90
41762;DHT22;27441;50.860;0.258;2022-07-06T02:26:06;12.60;99.90
41762;DHT22;27441;50.860;0.258;2022-07-06T02:28:32;12.60;99.90
41762;DHT22;27441;50.860;0.258;2022-07-06T02:30:57;12.60;99.90
41762;DHT22;27441;50.860;0.258;2022-07-06T02:33:23;12.50;99.90
41762;DHT22;27441;50.860;0.258;2022-07-06T02:35:49;12.50;99.90
41762;DHT22;27441;50.860;0.258;2022-07-06T02:38:15;12.50;99.90
41762;DHT22;27441;50.860;0.258;2022-07-06T02:40:40;12.50;99.90
41762;DHT22;27441;50.860;0.258;2022-07-06T02:43:06;12.50;99.90
41762;DHT22;27441;50.860;0.258;2022-07-06T02:45:32;12.50;99.90
41762;DHT22;27441;50.860;0.258;2022-07-06T02:47:57;12.50;99.90
41762;DHT22;27441;50.860;0.258;2022-07-06T02:50:23;12.50;99.90
41762;DHT22;27441;50.860;0.258;2022-07-06T02:52:49;12.40;99.90
41762;DHT22;27441;50.860;0.258;2022-07-06T02:55:15;12.50;99.90
41762;DHT22;27441;50.860;0.258;2022-07-06T02:57:41;12.50;99.90
41762;DHT22;27441;50.860;0.258;2022-07-06T03:00:06;12.50;99.90
41762;DHT22;27441;50.860;0.258;2022-07-06T03:02:32;12.40;99.90
41762;DHT22;27441;50.860;0.258;2022-07-06T03:04:58;12.40;99.90
41762;DHT22;27441;50.860;0.258;2022-07-06T03:07:24;12.40;99.90
41762;DHT22;27441;50.860;0.258;2022-07-06T03:09:50;12.40;99.90
41762;DHT22;27441;50.860;0.258;2022-07-06T03:12:15;12.40;99.90
41762;DHT22;27441;50.860;0.258;2022-07-06T03:14:41;12.30;99.90
41762;DHT22;27441;50.860;0.258;2022-07-06T03:17:07;12.30;99.90
41762;DHT22;27441;50.860;0.258;2022-07-06T03:19:32;12.30;99.90
41762;DHT22;27441;50.860;0.258;2022-07-06T03:21:58;12.30;99.90
41762;DHT22;27441;50.860;0.258;2022-07-06T03:24:24;12.30;99.90
41762;DHT22;27441;50.860;0.258;2022-07-06T03:26:50;12.40;99.90
41762;DHT22;27441;50.860;0.258;2022-07-06T03:29:15;12.40;99.90
41762;DHT22;27441;50.860;0.258;2022-07-06T03:31:41;12.40;99.90
41762;DHT22;27441;50.860;0.258;2022-07-06T03:34:07;12.40;99.90
41762;DHT22;27441;50.860;0.258;2022-07-06T03:36:32;12.40;99.90
41762;DHT22;27441;50.860;0.258;2022-07-06T03:38:58;12.40;99.90
41762;DHT22;27441;50.860;0.258;2022-07-06T03:41:23;12.50;99.90
41762;DHT22;27441;50.860;0.258;2022-07-06T03:43:49;12.40;99.90
41762;DHT22;27441;50.860;0.258;2022-07-06T03:46:15;12.40;99.90
41762;DHT22;27441;50.860;0.258;2022-07-06T03:48:40;12.40;99.90
41762;DHT22;27441;50.860;0.258;2022-07-06T03:51:06;12.40;99.90
41762;DHT22;27441;50.860;0.258;2022-07-06T03:53:32;12.30;99.90
41762;DHT22;27441;50.860;0.258;2022-07-06T03:55:58;12.30;99.90
41762;DHT22;27441;50.860;0.258;2022-07-06T03:58:42;12.20;99.90
41762;DHT22;27441;50.860;0.258;2022-07-06T04:01:07;12.20;99.90
41762;DHT22;27441;50.860;0.258;2022-07-06T04:03:33;12.20;99.90
41762;DHT22;27441;50.860;0.258;2022-07-06T04:05:59;12.10;99.90
41762;DHT22;27441;50.860;0.258;2022-07-06T04:08:24;12.10;99.90
41762;DHT22;27441;50.860;0.258;2022-07-06T04:10:50;12.10;99.90
41762;DHT22;27441;50.860;0.258;2022-07-06T04:13:16;12.00;99.90
41762;DHT22;27441;50.860;0.258;2022-07-06T04:15:41;12.10;99.90
41762;DHT22;27441;50.860;0.258;2022-07-06T04:18:07;12.00;99.90
41762;DHT22;27441;50.860;0.258;2022-07-06T04:20:32;11.90;99.90
41762;DHT22;27441;50.860;0.258;2022-07-06T04:22:58;12.00;99.90
41762;DHT22;27441;50.860;0.258;2022-07-06T04:25:24;12.00;99.90
41762;DHT22;27441;50.860;0.258;2022-07-06T04:27:50;12.00;99.90
41762;DHT22;27441;50.860;0.258;2022-07-06T04:30:15;11.90;99.90
41762;DHT22;27441;50.860;0.258;2022-07-06T04:32:41;12.00;99.90
41762;DHT22;27441;50.860;0.258;2022-07-06T04:35:07;12.00;99.90
41762;DHT22;27441;50.860;0.258;2022-07-06T04:37:32;12.00;99.90
41762;DHT22;27441;50.860;0.258;2022-07-06T04:39:58;12.10;99.90
41762;DHT22;27441;50.860;0.258;2022-07-06T04:42:24;12.10;99.90
41762;DHT22;27441;50.860;0.258;2022-07-06T04:44:49;12.10;99.90
41762;DHT22;27441;50.860;0.258;2022-07-06T04:47:17;12.00;99.90
41762;DHT22;27441;50.860;0.258;2022-07-06T04:49:42;12.10;99.90
41762;DHT22;27441;50.860;0.258;2022-07-06T04:52:08;12.10;99.90
41762;DHT22;27441;50.860;0.258;2022-07-06T04:54:34;12.10;99.90
41762;DHT22;27441;50.860;0.258;2022-07-06T04:56:59;12.20;99.90
41762;DHT22;27441;50.860;0.258;2022-07-06T04:59:25;12.10;99.90
41762;DHT22;27441;50.860;0.258;2022-07-06T05:01:51;12.00;99.90
41762;DHT22;27441;50.860;0.258;2022-07-06T05:04:18;12.10;99.90
41762;DHT22;27441;50.860;0.258;2022-07-06T05:06:45;12.10;99.90
41762;DHT22;27441;50.860;0.258;2022-07-06T05:09:11;12.00;99.90
41762;DHT22;27441;50.860;0.258;2022-07-06T05:11:37;12.00;99.90
41762;DHT22;27441;50.860;0.258;2022-07-06T05:14:03;12.20;99.90
41762;DHT22;27441;50.860;0.258;2022-07-06T05:16:29;12.20;99.90
41762;DHT22;27441;50.860;0.258;2022-07-06T05:18:54;12.30;99.90
41762;DHT22;27441;50.860;0.258;2022-07-06T05:21:20;12.40;99.90
41762;DHT22;27441;50.860;0.258;2022-07-06T05:23:45;12.50;99.90
41762;DHT22;27441;50.860;0.258;2022-07-06T05:26:11;12.50;99.90
41762;DHT22;27441;50.860;0.258;2022-07-06T05:28:36;12.60;99.90
41762;DHT22;27441;50.860;0.258;2022-07-06T05:31:02;12.80;99.90
41762;DHT22;27441;50.860;0.258;2022-07-06T05:33:28;12.80;99.90
41762;DHT22;27441;50.860;0.258;2022-07-06T05:35:53;12.90;99.90
41762;DHT22;27441;50.860;0.258;2022-07-06T05:38:19;12.90;99.90
41762;DHT22;27441;50.860;0.258;2022-07-06T05:40:45;13.00;99.90
41762;DHT22;27441;50.860;0.258;2022-07-06T05:43:10;13.00;99.90
41762;DHT22;27441;50.860;0.258;2022-07-06T05:45:36;13.00;99.90
41762;DHT22;27441;50.860;0.258;2022-07-06T05:48:01;13.00;99.90
41762;DHT22;27441;50.860;0.258;2022-07-06T05:50:46;13.00;99.90
41762;DHT22;27441;50.860;0.258;2022-07-06T05:53:11;13.10;99.90
41762;DHT22;27441;50.860;0.258;2022-07-06T05:55:37;13.10;99.90
41762;DHT22;27441;50.860;0.258;2022-07-06T05:58:03;13.10;99.90
41762;DHT22;27441;50.860;0.258;2022-07-06T06:00:28;13.20;99.90
41762;DHT22;27441;50.860;0.258;2022-07-06T06:02:54;13.20;99.90
41762;DHT22;27441;50.860;0.258;2022-07-06T06:05:20;13.30;99.90
41762;DHT22;27441;50.860;0.258;2022-07-06T06:07:46;13.40;99.90
41762;DHT22;27441;50.860;0.258;2022-07-06T06:10:14;13.40;99.90
41762;DHT22;27441;50.860;0.258;2022-07-06T06:12:40;13.50;99.90
41762;DHT22;27441;50.860;0.258;2022-07-06T06:15:06;13.50;99.90
41762;DHT22;27441;50.860;0.258;2022-07-06T06:17:31;13.60;99.90
41762;DHT22;27441;50.860;0.258;2022-07-06T06:19:57;13.60;99.90
41762;DHT22;27441;50.860;0.258;2022-07-06T06:22:23;13.60;99.90
41762;DHT22;27441;50.860;0.258;2022-07-06T06:24:49;13.70;99.90
41762;DHT22;27441;50.860;0.258;2022-07-06T06:27:14;13.70;99.90
41762;DHT22;27441;50.860;0.258;2022-07-06T06:29:40;13.80;99.90
41762;DHT22;27441;50.860;0.258;2022-07-06T06:32:07;13.90;99.90
41762;DHT22;27441;50.860;0.258;2022-07-06T06:34:33;14.00;99.90
41762;DHT22;27441;50.860;0.258;2022-07-06T06:36:59;14.10;99.90
41762;DHT22;27441;50.860;0.258;2022-07-06T06:39:24;14.20;99.90
41762;DHT22;27441;50.860;0.258;2022-07-06T06:41:50;14.30;99.90
41762;DHT22;27441;50.860;0.258;2022-07-06T06:44:16;14.40;99.90
41762;DHT22;27441;50.860;0.258;2022-07-06T06:46:43;14.50;99.90
41762;DHT22;27441;50.860;0.258;2022-07-06T06:49:08;14.60;99.90
41762;DHT22;27441;50.860;0.258;2022-07-06T06:51:34;14.70;99.90
41762;DHT22;27441;50.860;0.258;2022-07-06T06:54:00;14.80;99.90
41762;DHT22;27441;50.860;0.258;2022-07-06T06:56:25;14.90;99.90
41762;DHT22;27441;50.860;0.258;2022-07-06T06:58:51;14.90;99.90
41762;DHT22;27441;50.860;0.258;2022-07-06T07:01:17;15.10;99.90
41762;DHT22;27441;50.860;0.258;2022-07-06T07:03:43;15.30;99.90
41762;DHT22;27441;50.860;0.258;2022-07-06T07:06:08;15.60;99.90
41762;DHT22;27441;50.860;0.258;2022-07-06T07:08:34;15.70;99.90
41762;DHT22;27441;50.860;0.258;2022-07-06T07:10:59;15.80;99.90
41762;DHT22;27441;50.860;0.258;2022-07-06T07:13:25;15.90;99.90
41762;DHT22;27441;50.860;0.258;2022-07-06T07:15:51;16.00;99.90
41762;DHT22;27441;50.860;0.258;2022-07-06T07:18:16;16.10;99.90
41762;DHT22;27441;50.860;0.258;2022-07-06T07:20:42;16.00;99.90
41762;DHT22;27441;50.860;0.258;2022-07-06T07:23:07;16.00;99.90
41762;DHT22;27441;50.860;0.258;2022-07-06T07:25:33;16.10;99.90
41762;DHT22;27441;50.860;0.258;2022-07-06T07:27:59;16.20;99.90
41762;DHT22;27441;50.860;0.258;2022-07-06T07:30:25;16.30;99.90
41762;DHT22;27441;50.860;0.258;2022-07-06T07:32:51;16.40;99.90
41762;DHT22;27441;50.860;0.258;2022-07-06T07:35:16;16.50;99.90
41762;DHT22;27441;50.860;0.258;2022-07-06T07:37:42;16.50;99.90
41762;DHT22;27441;50.860;0.258;2022-07-06T07:40:08;16.50;99.90
41762;DHT22;27441;50.860;0.258;2022-07-06T07:42:33;16.70;99.90
41762;DHT22;27441;50.860;0.258;2022-07-06T07:44:59;16.90;99.90
41762;DHT22;27441;50.860;0.258;2022-07-06T07:47:25;17.10;99.90
41762;DHT22;27441;50.860;0.258;2022-07-06T07:49:50;17.30;99.90
41762;DHT22;27441;50.860;0.258;2022-07-06T07:52:16;17.30;99.90
41762;DHT22;27441;50.860;0.258;2022-07-06T07:54:41;17.40;99.90
41762;DHT22;27441;50.860;0.258;2022-07-06T07:57:07;17.80;99.90
41762;DHT22;27441;50.860;0.258;2022-07-06T07:59:33;18.10;99.90
41762;DHT22;27441;50.860;0.258;2022-07-06T08:01:58;18.00;99.90
41762;DHT22;27441;50.860;0.258;2022-07-06T08:04:24;18.00;99.90
41762;DHT22;27441;50.860;0.258;2022-07-06T08:06:50;18.10;99.90
41762;DHT22;27441;50.860;0.258;2022-07-06T08:09:16;18.20;99.90
41762;DHT22;27441;50.860;0.258;2022-07-06T08:11:42;18.50;99.90
41762;DHT22;27441;50.860;0.258;2022-07-06T08:14:07;18.70;99.90
41762;DHT22;27441;50.860;0.258;2022-07-06T08:16:33;18.90;99.90
41762;DHT22;27441;50.860;0.258;2022-07-06T08:18:59;19.10;99.90
41762;DHT22;27441;50.860;0.258;2022-07-06T08:21:25;19.00;99.90
41762;DHT22;27441;50.860;0.258;2022-07-06T08:23:51;19.10;99.90
41762;DHT22;27441;50.860;0.258;2022-07-06T08:26:16;19.10;99.90
41762;DHT22;27441;50.860;0.258;2022-07-06T08:28:42;18.70;99.90
41762;DHT22;27441;50.860;0.258;2022-07-06T08:31:08;18.60;99.90
41762;DHT22;27441;50.860;0.258;2022-07-06T08:33:34;18.60;99.90
41762;DHT22;27441;50.860;0.258;2022-07-06T08:35:59;18.50;99.90
41762;DHT22;27441;50.860;0.258;2022-07-06T08:38:25;18.60;99.90
41762;DHT22;27441;50.860;0.258;2022-07-06T08:40:50;18.70;99.90
41762;DHT22;27441;50.860;0.258;2022-07-06T08:43:17;18.80;99.90
41762;DHT22;27441;50.860;0.258;2022-07-06T08:45:42;18.90;99.90
41762;DHT22;27441;50.860;0.258;2022-07-06T08:48:10;19.10;99.90
41762;DHT22;27441;50.860;0.258;2022-07-06T08:50:36;19.30;99.90
41762;DHT22;27441;50.860;0.258;2022-07-06T08:53:02;19.50;99.90
41762;DHT22;27441;50.860;0.258;2022-07-06T08:55:28;19.80;99.90
41762;DHT22;27441;50.860;0.258;2022-07-06T08:57:55;19.90;99.90
41762;DHT22;27441;50.860;0.258;2022-07-06T09:00:21;20.20;99.90
41762;DHT22;27441;50.860;0.258;2022-07-06T09:02:48;20.30;99.90
41762;DHT22;27441;50.860;0.258;2022-07-06T09:05:16;20.20;99.90
41762;DHT22;27441;50.860;0.258;2022-07-06T09:07:41;20.10;99.90
41762;DHT22;27441;50.860;0.258;2022-07-06T09:10:08;20.40;99.90
41762;DHT22;27441;50.860;0.258;2022-07-06T09:12:34;20.80;99.90
41762;DHT22;27441;50.860;0.258;2022-07-06T09:15:00;21.30;99.90
41762;DHT22;27441;50.860;0.258;2022-07-06T09:17:27;21.50;99.90
41762;DHT22;27441;50.860;0.258;2022-07-06T09:19:55;21.20;99.90
41762;DHT22;27441;50.860;0.258;2022-07-06T09:22:30;20.90;99.90
41762;DHT22;27441;50.860;0.258;2022-07-06T09:25:13;20.70;99.90
41762;DHT22;27441;50.860;0.258;2022-07-06T09:27:43;21.10;99.90
41762;DHT22;27441;50.860;0.258;2022-07-06T09:30:11;21.20;99.90
41762;DHT22;27441;50.860;0.258;2022-07-06T09:32:46;21.90;99.90
41762;DHT22;27441;50.860;0.258;2022-07-06T09:35:35;22.60;99.90
41762;DHT22;27441;50.860;0.258;2022-07-06T09:38:03;22.70;99.90
41762;DHT22;27441;50.860;0.258;2022-07-06T09:40:31;22.50;99.90
41762;DHT22;27441;50.860;0.258;2022-07-06T09:43:18;22.90;99.90
41762;DHT22;27441;50.860;0.258;2022-07-06T09:45:45;22.70;99.90
41762;DHT22;27441;50.860;0.258;2022-07-06T09:48:12;23.70;99.90
41762;DHT22;27441;50.860;0.258;2022-07-06T09:50:43;23.80;99.90
41762;DHT22;27441;50.860;0.258;2022-07-06T09:53:10;24.10;99.90
41762;DHT22;27441;50.860;0.258;2022-07-06T09:55:36;24.10;99.90
41762;DHT22;27441;50.860;0.258;2022-07-06T09:58:03;24.00;99.90
41762;DHT22;27441;50.860;0.258;2022-07-06T10:00:29;23.30;99.90
41762;DHT22;27441;50.860;0.258;2022-07-06T10:02:55;23.00;99.90
41762;DHT22;27441;50.860;0.258;2022-07-06T10:05:22;23.50;99.90
41762;DHT22;27441;50.860;0.258;2022-07-06T10:07:58;23.60;99.90
41762;DHT22;27441;50.860;0.258;2022-07-06T10:10:26;23.60;99.90
41762;DHT22;27441;50.860;0.258;2022-07-06T10:12:55;23.50;99.90
41762;DHT22;27441;50.860;0.258;2022-07-06T10:15:26;23.30;99.90
41762;DHT22;27441;50.860;0.258;2022-07-06T10:17:54;23.80;99.90
41762;DHT22;27441;50.860;0.258;2022-07-06T10:20:21;23.60;99.90
41762;DHT22;27441;50.860;0.258;2022-07-06T10:22:48;23.90;99.90
41762;DHT22;27441;50.860;0.258;2022-07-06T10:25:21;23.80;99.90
41762;DHT22;27441;50.860;0.258;2022-07-06T10:27:48;23.30;99.90
41762;DHT22;27441;50.860;0.258;2022-07-06T10:30:15;23.30;99.90
41762;DHT22;27441;50.860;0.258;2022-07-06T10:32:43;22.90;99.90
41762;DHT22;27441;50.860;0.258;2022-07-06T10:35:09;23.30;99.90
41762;DHT22;27441;50.860;0.258;2022-07-06T10:37:35;23.90;99.90
41762;DHT22;27441;50.860;0.258;2022-07-06T10:40:02;24.40;99.90
41762;DHT22;27441;50.860;0.258;2022-07-06T10:43:00;23.70;99.90
41762;DHT22;27441;50.860;0.258;2022-07-06T10:50:54;24.30;99.90
41762;DHT22;27441;50.860;0.258;2022-07-06T10:53:27;24.20;99.90
41762;DHT22;27441;50.860;0.258;2022-07-06T10:55:55;24.00;99.90
41762;DHT22;27441;50.860;0.258;2022-07-06T10:58:47;23.60;99.90
41762;DHT22;27441;50.860;0.258;2022-07-06T11:01:15;23.80;99.90
41762;DHT22;27441;50.860;0.258;2022-07-06T11:06:19;23.50;99.90
41762;DHT22;27441;50.860;0.258;2022-07-06T11:09:07;23.90;99.90
41762;DHT22;27441;50.860;0.258;2022-07-06T11:16:28;24.20;99.90
41762;DHT22;27441;50.860;0.258;2022-07-06T11:19:19;24.10;99.90
41762;DHT22;27441;50.860;0.258;2022-07-06T11:24:21;23.60;99.90
41762;DHT22;27441;50.860;0.258;2022-07-06T11:26:50;23.90;99.90
41762;DHT22;27441;50.860;0.258;2022-07-06T11:29:18;25.60;99.90
41762;DHT22;27441;50.860;0.258;2022-07-06T11:31:49;26.20;99.90
41762;DHT22;27441;50.860;0.258;2022-07-06T11:34:23;26.30;99.90
41762;DHT22;27441;50.860;0.258;2022-07-06T11:36:55;25.90;99.90
41762;DHT22;27441;50.860;0.258;2022-07-06T11:39:21;25.90;99.90
41762;DHT22;27441;50.860;0.258;2022-07-06T11:41:47;25.60;99.90
41762;DHT22;27441;50.860;0.258;2022-07-06T11:44:13;25.50;99.90
41762;DHT22;27441;50.860;0.258;2022-07-06T11:46:39;24.60;99.90
41762;DHT22;27441;50.860;0.258;2022-07-06T11:49:06;24.10;99.90
41762;DHT22;27441;50.860;0.258;2022-07-06T11:51:39;24.00;99.90
41762;DHT22;27441;50.860;0.258;2022-07-06T11:54:13;24.00;99.90
41762;DHT22;27441;50.860;0.258;2022-07-06T11:56:53;23.90;99.90
41762;DHT22;27441;50.860;0.258;2022-07-06T11:59:33;23.60;99.90
41762;DHT22;27441;50.860;0.258;2022-07-06T12:02:07;23.70;99.90
41762;DHT22;27441;50.860;0.258;2022-07-06T12:04:35;23.20;99.90
41762;DHT22;27441;50.860;0.258;2022-07-06T12:07:03;23.10;99.90
41762;DHT22;27441;50.860;0.258;2022-07-06T12:09:30;22.70;99.90
41762;DHT22;27441;50.860;0.258;2022-07-06T12:11:57;22.80;99.90
41762;DHT22;27441;50.860;0.258;2022-07-06T12:14:22;23.10;99.90
41762;DHT22;27441;50.860;0.258;2022-07-06T12:16:49;23.20;99.90
41762;DHT22;27441;50.860;0.258;2022-07-06T12:19:16;23.30;99.90
41762;DHT22;27441;50.860;0.258;2022-07-06T12:21:44;23.20;99.90
41762;DHT22;27441;50.860;0.258;2022-07-06T12:24:20;23.30;99.90
41762;DHT22;27441;50.860;0.258;2022-07-06T12:26:47;23.60;99.90
41762;DHT22;27441;50.860;0.258;2022-07-06T12:29:13;23.50;99.90
41762;DHT22;27441;50.860;0.258;2022-07-06T12:34:27;23.10;99.90
41762;DHT22;27441;50.860;0.258;2022-07-06T12:36:54;23.20;99.90
41762;DHT22;27441;50.860;0.258;2022-07-06T12:39:22;23.10;99.90
41762;DHT22;27441;50.860;0.258;2022-07-06T12:41:56;22.90;99.90
41762;DHT22;27441;50.860;0.258;2022-07-06T12:44:26;22.70;99.90
41762;DHT22;27441;50.860;0.258;2022-07-06T12:47:09;22.90;99.90
41762;DHT22;27441;50.860;0.258;2022-07-06T12:49:36;22.60;99.90
41762;DHT22;27441;50.860;0.258;2022-07-06T12:52:12;22.40;99.90
41762;DHT22;27441;50.860;0.258;2022-07-06T12:54:46;22.50;99.90
41762;DHT22;27441;50.860;0.258;2022-07-06T12:57:14;22.50;99.90
41762;DHT22;27441;50.860;0.258;2022-07-06T12:59:41;22.20;99.90
41762;DHT22;27441;50.860;0.258;2022-07-06T13:02:09;22.10;99.90
41762;DHT22;27441;50.860;0.258;2022-07-06T13:04:37;21.80;99.90
41762;DHT22;27441;50.860;0.258;2022-07-06T13:07:03;21.80;99.90
41762;DHT22;27441;50.860;0.258;2022-07-06T13:09:29;21.50;99.90
41762;DHT22;27441;50.860;0.258;2022-07-06T13:11:55;21.30;99.90
41762;DHT22;27441;50.860;0.258;2022-07-06T13:14:21;21.20;99.90
41762;DHT22;27441;50.860;0.258;2022-07-06T13:16:48;21.20;99.90
41762;DHT22;27441;50.860;0.258;2022-07-06T13:19:14;21.10;99.90
41762;DHT22;27441;50.860;0.258;2022-07-06T13:21:40;21.10;99.90
41762;DHT22;27441;50.860;0.258;2022-07-06T13:24:07;21.10;99.90
41762;DHT22;27441;50.860;0.258;2022-07-06T13:26:32;21.10;99.90
41762;DHT22;27441;50.860;0.258;2022-07-06T13:29:03;21.50;99.90
41762;DHT22;27441;50.860;0.258;2022-07-06T13:31:30;21.90;99.90
41762;DHT22;27441;50.860;0.258;2022-07-06T13:33:56;22.30;99.90
41762;DHT22;27441;50.860;0.258;2022-07-06T13:36:23;22.70;99.90
41762;DHT22;27441;50.860;0.258;2022-07-06T13:38:49;22.60;99.90
41762;DHT22;27441;50.860;0.258;2022-07-06T13:41:14;22.60;99.90
41762;DHT22;27441;50.860;0.258;2022-07-06T13:43:41;22.20;99.90
41762;DHT22;27441;50.860;0.258;2022-07-06T13:46:07;22.20;99.90
41762;DHT22;27441;50.860;0.258;2022-07-06T13:48:33;22.10;99.90
41762;DHT22;27441;50.860;0.258;2022-07-06T13:50:59;21.90;99.90
41762;DHT22;27441;50.860;0.258;2022-07-06T13:53:26;22.20;99.90
41762;DHT22;27441;50.860;0.258;2022-07-06T13:55:52;22.40;99.90
41762;DHT22;27441;50.860;0.258;2022-07-06T13:58:18;22.60;99.90
41762;DHT22;27441;50.860;0.258;2022-07-06T14:00:44;22.60;99.90
41762;DHT22;27441;50.860;0.258;2022-07-06T14:03:10;22.80;99.90
41762;DHT22;27441;50.860;0.258;2022-07-06T14:05:36;22.40;99.90
41762;DHT22;27441;50.860;0.258;2022-07-06T14:08:02;22.10;99.90
41762;DHT22;27441;50.860;0.258;2022-07-06T14:10:28;21.90;99.90
41762;DHT22;27441;50.860;0.258;2022-07-06T14:12:54;21.90;99.90
41762;DHT22;27441;50.860;0.258;2022-07-06T14:15:20;21.90;99.90
41762;DHT22;27441;50.860;0.258;2022-07-06T14:17:46;21.80;99.90
41762;DHT22;27441;50.860;0.258;2022-07-06T14:20:14;21.70;99.90
41762;DHT22;27441;50.860;0.258;2022-07-06T14:22:40;21.80;99.90
41762;DHT22;27441;50.860;0.258;2022-07-06T14:25:06;22.00;99.90
41762;DHT22;27441;50.860;0.258;2022-07-06T14:27:33;21.90;99.90
41762;DHT22;27441;50.860;0.258;2022-07-06T14:29:59;21.80;99.90
41762;DHT22;27441;50.860;0.258;2022-07-06T14:32:25;21.90;99.90
41762;DHT22;27441;50.860;0.258;2022-07-06T14:34:51;21.80;99.90
41762;DHT22;27441;50.860;0.258;2022-07-06T14:37:17;21.60;99.90
41762;DHT22;27441;50.860;0.258;2022-07-06T14:39:43;21.60;99.90
41762;DHT22;27441;50.860;0.258;2022-07-06T14:42:10;21.50;99.90
41762;DHT22;27441;50.860;0.258;2022-07-06T14:44:36;21.70;99.90
41762;DHT22;27441;50.860;0.258;2022-07-06T14:47:02;21.90;99.90
41762;DHT22;27441;50.860;0.258;2022-07-06T14:49:29;22.00;99.90
41762;DHT22;27441;50.860;0.258;2022-07-06T14:51:54;22.00;99.90
41762;DHT22;27441;50.860;0.258;2022-07-06T14:54:23;22.00;99.90
41762;DHT22;27441;50.860;0.258;2022-07-06T14:56:48;22.00;99.90
41762;DHT22;27441;50.860;0.258;2022-07-06T14:59:14;21.80;99.90
41762;DHT22;27441;50.860;0.258;2022-07-06T15:01:40;21.60;99.90
41762;DHT22;27441;50.860;0.258;2022-07-06T15:04:07;21.70;99.90
41762;DHT22;27441;50.860;0.258;2022-07-06T15:06:33;21.90;99.90
41762;DHT22;27441;50.860;0.258;2022-07-06T15:08:59;21.90;99.90
41762;DHT22;27441;50.860;0.258;2022-07-06T15:11:30;21.90;99.90
41762;DHT22;27441;50.860;0.258;2022-07-06T15:13:56;21.90;99.90
41762;DHT22;27441;50.860;0.258;2022-07-06T15:16:21;22.10;99.90
41762;DHT22;27441;50.860;0.258;2022-07-06T15:18:47;22.30;99.90
41762;DHT22;27441;50.860;0.258;2022-07-06T15:21:13;22.40;99.90
41762;DHT22;27441;50.860;0.258;2022-07-06T15:23:39;22.40;99.90
41762;DHT22;27441;50.860;0.258;2022-07-06T15:26:05;22.30;99.90
41762;DHT22;27441;50.860;0.258;2022-07-06T15:28:30;22.10;99.90
41762;DHT22;27441;50.860;0.258;2022-07-06T15:30:56;22.10;99.90
41762;DHT22;27441;50.860;0.258;2022-07-06T15:33:22;22.20;99.90
41762;DHT22;27441;50.860;0.258;2022-07-06T15:35:48;22.20;99.90
41762;DHT22;27441;50.860;0.258;2022-07-06T15:38:14;22.10;99.90
41762;DHT22;27441;50.860;0.258;2022-07-06T15:40:40;22.10;99.90
41762;DHT22;27441;50.860;0.258;2022-07-06T15:43:10;22.10;99.90
41762;DHT22;27441;50.860;0.258;2022-07-06T15:45:37;22.00;99.90
41762;DHT22;27441;50.860;0.258;2022-07-06T15:48:06;22.00;99.90